メインページ
METAR-TAF:

METAR-TAF

空港 :

バーリントン/ マウントバーノン, ワシントン, アメリカ合衆国

緯度: 48-28-15N, 経度: 122-25-15W, 海抜: 44m

現時点の気象観測

当レポートは25分前の03:15(UTC)に作成
西の風 3kt
気温 23°C
湿度 50%
気圧 1019 hPa
視程: 16.1km
晴天

METAR: KBVS 230315Z AUTO 27003KT 10SM CLR 23/12 A3010 RMK A01

時間: 20:40 (03:40 UTC)


TAF: 見つかりません

4,000以上の空港の気象観測と天気予報(METAR報とTAF報)

利用可能な観測所は地図上に黄色い丸と赤い丸で示す。

丸の上にカーソルを重ねると観測所名を参照できる。

次にクリックすると気象観測と天気予報を参照できる。

マップの切り替え:黒色「×」印の緑ボタンをクリックして拡大、「-」印の緑ボタンをクリックして縮小、緑色の三角印をクリックして隣りの地図に切り替え


METAR-TAF: